Connexion S'enregistrer

Connexion à votre compte

Identifiant
Mot de passe
Maintenir la connexion active sur ce site

Créer un compte

Pour valider ce formulaire, vous devez remplir tous les champs.
Nom
Identifiant
Mot de passe
Répétez le mot de passe
Adresse e-mail
Répétez l'adresse e-mail

METAR/TAF de Chambéry

[source: ADDS]
METAR
LFLB 292000Z AUTO 36011KT 9999 -RA FEW017 OVC024 06/03 Q1018 =
TAF LFLB 291100Z 2912/3012 36013KT 9999 BKN030 TEMPO 2912/2922 4000 RA OVC020 TEMPO 3007/3012 36015G25KT
TAF
TAF LFLB 291100Z 2912/3012 36013KT 9999 BKN030 TEMPO 2912/2922 4000 RA OVC020 TEMPO 3007/3012 36015G25KT =
SR / SS: 05:21 / 18:01 UTC (Lever/Coucher du soleil le 2020-03-29)

 

Webcam de l'Aéroclub - Parking Lima et SW (réactualisation : 5min)

Cliquer ici pour une animation sur les 3 dernières heures / Cliquer sur l'image pour l'agrandir dans une nouvelle fenêtre

 

Webcam de l'Aéroclub - Manche à air et WA (réactualisation : 5min)

Cliquer ici pour une animation sur les 3 dernières heures / Cliquer sur l'image pour l'agrandir dans une nouvelle fenêtre

 

JSN Boot template designed by JoomlaShine.com